sensor_id;sensor_type;location;lat;lon;timestamp;P1;durP1;ratioP1;P2;durP2;ratioP2
57087;SDS011;42965;52.846;6.614;2023-04-21T00:02:10;31.55;;;28.15;;
57087;SDS011;42965;52.846;6.614;2023-04-21T00:04:40;31.50;;;27.48;;
57087;SDS011;42965;52.846;6.614;2023-04-21T00:07:10;32.97;;;27.63;;
57087;SDS011;42965;52.846;6.614;2023-04-21T00:09:39;31.90;;;27.25;;
57087;SDS011;42965;52.846;6.614;2023-04-21T00:12:06;36.90;;;28.35;;
57087;SDS011;42965;52.846;6.614;2023-04-21T00:14:32;31.90;;;26.13;;
57087;SDS011;42965;52.846;6.614;2023-04-21T00:16:59;30.13;;;24.70;;
57087;SDS011;42965;52.846;6.614;2023-04-21T00:19:25;28.90;;;24.42;;
57087;SDS011;42965;52.846;6.614;2023-04-21T00:21:53;29.33;;;23.05;;
57087;SDS011;42965;52.846;6.614;2023-04-21T00:24:23;27.50;;;24.02;;
57087;SDS011;42965;52.846;6.614;2023-04-21T00:26:51;27.13;;;23.17;;
57087;SDS011;42965;52.846;6.614;2023-04-21T00:29:17;28.52;;;23.48;;
57087;SDS011;42965;52.846;6.614;2023-04-21T00:31:43;30.25;;;24.05;;
57087;SDS011;42965;52.846;6.614;2023-04-21T00:34:10;28.30;;;23.95;;
57087;SDS011;42965;52.846;6.614;2023-04-21T00:36:36;29.08;;;22.10;;
57087;SDS011;42965;52.846;6.614;2023-04-21T00:39:05;25.05;;;21.23;;
57087;SDS011;42965;52.846;6.614;2023-04-21T00:41:32;27.00;;;23.33;;
57087;SDS011;42965;52.846;6.614;2023-04-21T00:44:08;26.90;;;22.42;;
57087;SDS011;42965;52.846;6.614;2023-04-21T00:46:36;29.27;;;22.42;;
57087;SDS011;42965;52.846;6.614;2023-04-21T00:49:04;26.13;;;22.92;;
57087;SDS011;42965;52.846;6.614;2023-04-21T00:51:34;28.15;;;20.08;;
57087;SDS011;42965;52.846;6.614;2023-04-21T00:54:02;28.83;;;19.98;;
57087;SDS011;42965;52.846;6.614;2023-04-21T00:56:40;28.48;;;21.25;;
57087;SDS011;42965;52.846;6.614;2023-04-21T00:59:07;23.33;;;19.63;;
57087;SDS011;42965;52.846;6.614;2023-04-21T01:01:33;24.88;;;20.77;;
57087;SDS011;42965;52.846;6.614;2023-04-21T01:04:06;26.02;;;19.75;;
57087;SDS011;42965;52.846;6.614;2023-04-21T01:06:41;24.58;;;20.52;;
57087;SDS011;42965;52.846;6.614;2023-04-21T01:09:08;26.50;;;20.83;;
57087;SDS011;42965;52.846;6.614;2023-04-21T01:11:37;21.27;;;18.80;;
57087;SDS011;42965;52.846;6.614;2023-04-21T01:14:06;23.83;;;20.23;;
57087;SDS011;42965;52.846;6.614;2023-04-21T01:16:33;27.05;;;19.98;;
57087;SDS011;42965;52.846;6.614;2023-04-21T01:19:00;28.83;;;21.45;;
57087;SDS011;42965;52.846;6.614;2023-04-21T01:21:26;22.85;;;18.52;;
57087;SDS011;42965;52.846;6.614;2023-04-21T01:23:53;20.73;;;18.52;;
57087;SDS011;42965;52.846;6.614;2023-04-21T01:26:20;21.88;;;18.52;;
57087;SDS011;42965;52.846;6.614;2023-04-21T01:28:48;24.00;;;15.88;;
57087;SDS011;42965;52.846;6.614;2023-04-21T01:31:15;24.05;;;18.63;;
57087;SDS011;42965;52.846;6.614;2023-04-21T01:33:51;21.63;;;17.20;;
57087;SDS011;42965;52.846;6.614;2023-04-21T01:36:18;22.17;;;18.17;;
57087;SDS011;42965;52.846;6.614;2023-04-21T01:38:44;24.77;;;18.33;;
57087;SDS011;42965;52.846;6.614;2023-04-21T01:41:11;22.25;;;18.10;;
57087;SDS011;42965;52.846;6.614;2023-04-21T01:43:37;20.80;;;16.13;;
57087;SDS011;42965;52.846;6.614;2023-04-21T01:46:04;25.42;;;18.52;;
57087;SDS011;42965;52.846;6.614;2023-04-21T01:48:30;21.23;;;15.85;;
57087;SDS011;42965;52.846;6.614;2023-04-21T01:50:58;22.73;;;18.10;;
57087;SDS011;42965;52.846;6.614;2023-04-21T01:53:24;22.67;;;17.95;;
57087;SDS011;42965;52.846;6.614;2023-04-21T01:55:51;23.63;;;17.27;;
57087;SDS011;42965;52.846;6.614;2023-04-21T01:58:18;20.35;;;14.38;;
57087;SDS011;42965;52.846;6.614;2023-04-21T02:00:44;20.30;;;17.65;;
57087;SDS011;42965;52.846;6.614;2023-04-21T02:03:10;23.35;;;17.42;;
57087;SDS011;42965;52.846;6.614;2023-04-21T02:05:37;24.25;;;16.17;;
57087;SDS011;42965;52.846;6.614;2023-04-21T02:08:03;21.35;;;16.27;;
57087;SDS011;42965;52.846;6.614;2023-04-21T02:10:29;23.45;;;16.65;;
57087;SDS011;42965;52.846;6.614;2023-04-21T02:12:56;22.73;;;17.35;;
57087;SDS011;42965;52.846;6.614;2023-04-21T02:15:22;24.15;;;17.48;;
57087;SDS011;42965;52.846;6.614;2023-04-21T02:17:48;20.35;;;16.88;;
57087;SDS011;42965;52.846;6.614;2023-04-21T02:20:15;20.75;;;16.48;;
57087;SDS011;42965;52.846;6.614;2023-04-21T02:22:42;19.52;;;16.92;;
57087;SDS011;42965;52.846;6.614;2023-04-21T02:25:08;23.88;;;17.23;;
57087;SDS011;42965;52.846;6.614;2023-04-21T02:27:35;23.38;;;17.50;;
57087;SDS011;42965;52.846;6.614;2023-04-21T02:30:02;24.50;;;17.13;;
57087;SDS011;42965;52.846;6.614;2023-04-21T02:32:29;24.45;;;16.98;;
57087;SDS011;42965;52.846;6.614;2023-04-21T02:34:56;20.20;;;16.40;;
57087;SDS011;42965;52.846;6.614;2023-04-21T02:37:23;21.40;;;17.48;;
57087;SDS011;42965;52.846;6.614;2023-04-21T02:39:52;24.50;;;16.95;;
57087;SDS011;42965;52.846;6.614;2023-04-21T02:42:18;21.67;;;17.45;;
57087;SDS011;42965;52.846;6.614;2023-04-21T02:44:46;20.55;;;17.08;;
57087;SDS011;42965;52.846;6.614;2023-04-21T02:47:16;23.88;;;17.65;;
57087;SDS011;42965;52.846;6.614;2023-04-21T02:49:42;21.45;;;17.35;;
57087;SDS011;42965;52.846;6.614;2023-04-21T02:52:11;21.00;;;16.48;;
57087;SDS011;42965;52.846;6.614;2023-04-21T02:54:37;21.77;;;16.33;;
57087;SDS011;42965;52.846;6.614;2023-04-21T02:57:04;19.35;;;16.13;;
57087;SDS011;42965;52.846;6.614;2023-04-21T02:59:32;21.15;;;15.85;;
57087;SDS011;42965;52.846;6.614;2023-04-21T03:01:59;22.67;;;16.45;;
57087;SDS011;42965;52.846;6.614;2023-04-21T03:04:26;20.45;;;18.13;;
57087;SDS011;42965;52.846;6.614;2023-04-21T03:06:52;19.63;;;15.25;;
57087;SDS011;42965;52.846;6.614;2023-04-21T03:09:19;18.38;;;15.85;;
57087;SDS011;42965;52.846;6.614;2023-04-21T03:11:45;18.15;;;16.00;;
57087;SDS011;42965;52.846;6.614;2023-04-21T03:14:12;21.80;;;16.48;;
57087;SDS011;42965;52.846;6.614;2023-04-21T03:16:38;19.33;;;16.40;;
57087;SDS011;42965;52.846;6.614;2023-04-21T03:19:05;21.67;;;16.52;;
57087;SDS011;42965;52.846;6.614;2023-04-21T03:21:31;23.10;;;16.02;;
57087;SDS011;42965;52.846;6.614;2023-04-21T03:23:57;22.17;;;16.70;;
57087;SDS011;42965;52.846;6.614;2023-04-21T03:26:25;20.77;;;16.45;;
57087;SDS011;42965;52.846;6.614;2023-04-21T03:28:51;17.85;;;14.23;;
57087;SDS011;42965;52.846;6.614;2023-04-21T03:31:18;23.75;;;17.00;;
57087;SDS011;42965;52.846;6.614;2023-04-21T03:33:44;21.48;;;16.83;;
57087;SDS011;42965;52.846;6.614;2023-04-21T03:36:11;16.52;;;14.57;;
57087;SDS011;42965;52.846;6.614;2023-04-21T03:38:38;20.38;;;15.77;;
57087;SDS011;42965;52.846;6.614;2023-04-21T03:41:04;23.08;;;15.70;;
57087;SDS011;42965;52.846;6.614;2023-04-21T03:43:33;18.58;;;15.23;;
57087;SDS011;42965;52.846;6.614;2023-04-21T03:46:00;24.55;;;16.30;;
57087;SDS011;42965;52.846;6.614;2023-04-21T03:48:27;17.73;;;14.10;;
57087;SDS011;42965;52.846;6.614;2023-04-21T03:50:54;17.15;;;15.05;;
57087;SDS011;42965;52.846;6.614;2023-04-21T03:53:20;23.75;;;15.52;;
57087;SDS011;42965;52.846;6.614;2023-04-21T03:55:48;18.38;;;14.32;;
57087;SDS011;42965;52.846;6.614;2023-04-21T03:58:15;19.02;;;13.05;;
57087;SDS011;42965;52.846;6.614;2023-04-21T04:00:42;19.80;;;15.85;;
57087;SDS011;42965;52.846;6.614;2023-04-21T04:03:09;18.35;;;16.05;;
57087;SDS011;42965;52.846;6.614;2023-04-21T04:05:35;20.67;;;15.07;;
57087;SDS011;42965;52.846;6.614;2023-04-21T04:08:01;22.67;;;15.98;;
57087;SDS011;42965;52.846;6.614;2023-04-21T04:10:28;21.38;;;15.75;;
57087;SDS011;42965;52.846;6.614;2023-04-21T04:12:54;17.25;;;15.48;;
57087;SDS011;42965;52.846;6.614;2023-04-21T04:15:21;20.95;;;15.20;;
57087;SDS011;42965;52.846;6.614;2023-04-21T04:17:47;20.70;;;15.02;;
57087;SDS011;42965;52.846;6.614;2023-04-21T04:20:13;19.65;;;15.23;;
57087;SDS011;42965;52.846;6.614;2023-04-21T04:22:40;19.35;;;16.00;;
57087;SDS011;42965;52.846;6.614;2023-04-21T04:25:06;18.25;;;16.13;;
57087;SDS011;42965;52.846;6.614;2023-04-21T04:27:33;23.27;;;15.70;;
57087;SDS011;42965;52.846;6.614;2023-04-21T04:29:59;21.40;;;14.70;;
57087;SDS011;42965;52.846;6.614;2023-04-21T04:32:26;21.88;;;15.45;;
57087;SDS011;42965;52.846;6.614;2023-04-21T04:34:53;21.95;;;16.73;;
57087;SDS011;42965;52.846;6.614;2023-04-21T04:37:21;18.77;;;16.38;;
57087;SDS011;42965;52.846;6.614;2023-04-21T04:39:47;20.10;;;15.13;;
57087;SDS011;42965;52.846;6.614;2023-04-21T04:42:17;22.65;;;15.32;;
57087;SDS011;42965;52.846;6.614;2023-04-21T04:44:45;20.88;;;15.45;;
57087;SDS011;42965;52.846;6.614;2023-04-21T04:47:12;21.80;;;16.08;;
57087;SDS011;42965;52.846;6.614;2023-04-21T04:49:38;27.50;;;16.83;;
57087;SDS011;42965;52.846;6.614;2023-04-21T04:52:08;21.58;;;16.52;;
57087;SDS011;42965;52.846;6.614;2023-04-21T04:54:35;20.25;;;15.73;;
57087;SDS011;42965;52.846;6.614;2023-04-21T04:57:01;21.08;;;15.68;;
57087;SDS011;42965;52.846;6.614;2023-04-21T04:59:28;22.63;;;16.88;;
57087;SDS011;42965;52.846;6.614;2023-04-21T05:01:56;22.42;;;15.63;;
57087;SDS011;42965;52.846;6.614;2023-04-21T05:04:42;21.20;;;15.43;;
57087;SDS011;42965;52.846;6.614;2023-04-21T05:07:28;22.27;;;15.90;;
57087;SDS011;42965;52.846;6.614;2023-04-21T05:09:54;20.15;;;15.63;;
57087;SDS011;42965;52.846;6.614;2023-04-21T05:12:20;21.20;;;15.60;;
57087;SDS011;42965;52.846;6.614;2023-04-21T05:14:47;24.15;;;15.20;;
57087;SDS011;42965;52.846;6.614;2023-04-21T05:17:13;21.50;;;17.00;;
57087;SDS011;42965;52.846;6.614;2023-04-21T05:19:39;19.65;;;15.77;;
57087;SDS011;42965;52.846;6.614;2023-04-21T05:22:05;19.25;;;14.73;;
57087;SDS011;42965;52.846;6.614;2023-04-21T05:24:32;19.85;;;14.80;;
57087;SDS011;42965;52.846;6.614;2023-04-21T05:26:58;16.90;;;14.80;;
57087;SDS011;42965;52.846;6.614;2023-04-21T05:29:26;19.42;;;15.35;;
57087;SDS011;42965;52.846;6.614;2023-04-21T05:31:52;17.08;;;14.73;;
57087;SDS011;42965;52.846;6.614;2023-04-21T05:34:19;23.05;;;15.13;;
57087;SDS011;42965;52.846;6.614;2023-04-21T05:36:45;20.33;;;14.82;;
57087;SDS011;42965;52.846;6.614;2023-04-21T05:39:13;18.58;;;14.93;;
57087;SDS011;42965;52.846;6.614;2023-04-21T05:41:41;19.08;;;15.02;;
57087;SDS011;42965;52.846;6.614;2023-04-21T05:44:07;19.58;;;15.75;;
57087;SDS011;42965;52.846;6.614;2023-04-21T05:46:33;19.52;;;14.80;;
57087;SDS011;42965;52.846;6.614;2023-04-21T05:49:00;23.40;;;14.55;;
57087;SDS011;42965;52.846;6.614;2023-04-21T05:51:29;16.17;;;14.43;;
57087;SDS011;42965;52.846;6.614;2023-04-21T05:53:56;16.33;;;12.85;;
57087;SDS011;42965;52.846;6.614;2023-04-21T05:56:23;22.35;;;15.00;;
57087;SDS011;42965;52.846;6.614;2023-04-21T05:58:49;19.98;;;13.98;;
57087;SDS011;42965;52.846;6.614;2023-04-21T06:01:16;17.15;;;13.13;;
57087;SDS011;42965;52.846;6.614;2023-04-21T06:03:42;15.45;;;12.90;;
57087;SDS011;42965;52.846;6.614;2023-04-21T06:06:08;17.13;;;12.35;;
57087;SDS011;42965;52.846;6.614;2023-04-21T06:08:36;16.80;;;12.52;;
57087;SDS011;42965;52.846;6.614;2023-04-21T06:11:02;18.58;;;12.15;;
57087;SDS011;42965;52.846;6.614;2023-04-21T06:13:30;17.58;;;13.60;;
57087;SDS011;42965;52.846;6.614;2023-04-21T06:15:56;15.77;;;12.45;;
57087;SDS011;42965;52.846;6.614;2023-04-21T06:18:22;16.50;;;12.05;;
57087;SDS011;42965;52.846;6.614;2023-04-21T06:20:52;14.65;;;10.30;;
57087;SDS011;42965;52.846;6.614;2023-04-21T06:23:19;19.33;;;12.07;;
57087;SDS011;42965;52.846;6.614;2023-04-21T06:25:46;17.58;;;11.68;;
57087;SDS011;42965;52.846;6.614;2023-04-21T06:28:23;14.50;;;12.07;;
57087;SDS011;42965;52.846;6.614;2023-04-21T06:30:50;12.93;;;10.55;;
57087;SDS011;42965;52.846;6.614;2023-04-21T06:33:16;15.18;;;11.13;;
57087;SDS011;42965;52.846;6.614;2023-04-21T06:35:43;14.20;;;11.95;;
57087;SDS011;42965;52.846;6.614;2023-04-21T06:38:09;24.73;;;17.20;;
57087;SDS011;42965;52.846;6.614;2023-04-21T06:40:35;16.02;;;11.60;;
57087;SDS011;42965;52.846;6.614;2023-04-21T06:43:02;17.73;;;11.38;;
57087;SDS011;42965;52.846;6.614;2023-04-21T06:45:28;16.92;;;9.80;;
57087;SDS011;42965;52.846;6.614;2023-04-21T06:47:54;16.90;;;10.95;;
57087;SDS011;42965;52.846;6.614;2023-04-21T06:50:20;17.27;;;13.52;;
57087;SDS011;42965;52.846;6.614;2023-04-21T06:52:47;18.48;;;12.80;;
57087;SDS011;42965;52.846;6.614;2023-04-21T06:55:13;19.17;;;13.50;;
57087;SDS011;42965;52.846;6.614;2023-04-21T06:57:39;18.90;;;10.52;;
57087;SDS011;42965;52.846;6.614;2023-04-21T07:00:05;21.02;;;15.30;;
57087;SDS011;42965;52.846;6.614;2023-04-21T07:02:32;14.80;;;10.55;;
57087;SDS011;42965;52.846;6.614;2023-04-21T07:04:58;13.88;;;11.15;;
57087;SDS011;42965;52.846;6.614;2023-04-21T07:07:24;15.23;;;10.35;;
57087;SDS011;42965;52.846;6.614;2023-04-21T07:09:51;14.77;;;11.75;;
57087;SDS011;42965;52.846;6.614;2023-04-21T07:12:18;13.05;;;10.32;;
57087;SDS011;42965;52.846;6.614;2023-04-21T07:14:44;17.00;;;12.85;;
57087;SDS011;42965;52.846;6.614;2023-04-21T07:17:10;17.02;;;11.52;;
57087;SDS011;42965;52.846;6.614;2023-04-21T07:19:36;14.10;;;10.40;;
57087;SDS011;42965;52.846;6.614;2023-04-21T07:22:04;20.00;;;13.90;;
57087;SDS011;42965;52.846;6.614;2023-04-21T07:24:30;14.95;;;10.73;;
57087;SDS011;42965;52.846;6.614;2023-04-21T07:26:58;16.33;;;10.77;;
57087;SDS011;42965;52.846;6.614;2023-04-21T07:29:25;16.27;;;10.85;;
57087;SDS011;42965;52.846;6.614;2023-04-21T07:31:51;18.95;;;9.48;;
57087;SDS011;42965;52.846;6.614;2023-04-21T07:34:19;16.50;;;10.70;;
57087;SDS011;42965;52.846;6.614;2023-04-21T07:36:49;17.33;;;10.95;;
57087;SDS011;42965;52.846;6.614;2023-04-21T07:39:16;15.63;;;9.65;;
57087;SDS011;42965;52.846;6.614;2023-04-21T07:41:43;16.58;;;10.88;;
57087;SDS011;42965;52.846;6.614;2023-04-21T07:44:09;16.20;;;11.98;;
57087;SDS011;42965;52.846;6.614;2023-04-21T07:46:35;14.23;;;10.38;;
57087;SDS011;42965;52.846;6.614;2023-04-21T07:49:01;15.55;;;11.43;;
57087;SDS011;42965;52.846;6.614;2023-04-21T07:51:28;15.60;;;11.23;;
57087;SDS011;42965;52.846;6.614;2023-04-21T07:53:54;17.35;;;11.75;;
57087;SDS011;42965;52.846;6.614;2023-04-21T07:56:21;16.98;;;11.02;;
57087;SDS011;42965;52.846;6.614;2023-04-21T07:58:47;14.63;;;11.07;;
57087;SDS011;42965;52.846;6.614;2023-04-21T08:01:13;14.27;;;10.57;;
57087;SDS011;42965;52.846;6.614;2023-04-21T08:03:39;18.73;;;11.13;;
57087;SDS011;42965;52.846;6.614;2023-04-21T08:06:06;15.48;;;11.30;;
57087;SDS011;42965;52.846;6.614;2023-04-21T08:08:32;16.95;;;10.98;;
57087;SDS011;42965;52.846;6.614;2023-04-21T08:10:59;15.45;;;10.23;;
57087;SDS011;42965;52.846;6.614;2023-04-21T08:13:25;15.80;;;11.00;;
57087;SDS011;42965;52.846;6.614;2023-04-21T08:15:53;16.00;;;10.60;;
57087;SDS011;42965;52.846;6.614;2023-04-21T08:18:19;15.70;;;11.05;;
57087;SDS011;42965;52.846;6.614;2023-04-21T08:20:47;15.30;;;11.45;;
57087;SDS011;42965;52.846;6.614;2023-04-21T08:23:14;19.70;;;9.98;;
57087;SDS011;42965;52.846;6.614;2023-04-21T08:25:40;24.25;;;20.52;;
57087;SDS011;42965;52.846;6.614;2023-04-21T08:28:06;25.33;;;18.17;;
57087;SDS011;42965;52.846;6.614;2023-04-21T08:30:33;14.57;;;11.43;;
57087;SDS011;42965;52.846;6.614;2023-04-21T08:33:00;13.73;;;10.27;;
57087;SDS011;42965;52.846;6.614;2023-04-21T08:35:26;13.65;;;11.07;;
57087;SDS011;42965;52.846;6.614;2023-04-21T08:37:53;15.57;;;10.43;;
57087;SDS011;42965;52.846;6.614;2023-04-21T08:40:19;14.65;;;10.35;;
57087;SDS011;42965;52.846;6.614;2023-04-21T08:42:45;17.58;;;10.45;;
57087;SDS011;42965;52.846;6.614;2023-04-21T08:45:14;16.52;;;10.20;;
57087;SDS011;42965;52.846;6.614;2023-04-21T08:47:41;14.30;;;10.23;;
57087;SDS011;42965;52.846;6.614;2023-04-21T08:50:11;18.42;;;10.88;;
57087;SDS011;42965;52.846;6.614;2023-04-21T08:52:38;14.65;;;10.43;;
57087;SDS011;42965;52.846;6.614;2023-04-21T08:55:04;17.58;;;11.65;;
57087;SDS011;42965;52.846;6.614;2023-04-21T08:57:32;15.30;;;11.00;;
57087;SDS011;42965;52.846;6.614;2023-04-21T08:59:58;16.30;;;10.40;;
57087;SDS011;42965;52.846;6.614;2023-04-21T09:02:24;13.20;;;7.35;;
57087;SDS011;42965;52.846;6.614;2023-04-21T09:04:51;12.50;;;9.13;;
57087;SDS011;42965;52.846;6.614;2023-04-21T09:10:01;13.48;;;9.75;;
57087;SDS011;42965;52.846;6.614;2023-04-21T09:12:29;15.20;;;9.90;;
57087;SDS011;42965;52.846;6.614;2023-04-21T09:14:55;15.60;;;10.35;;
57087;SDS011;42965;52.846;6.614;2023-04-21T09:17:29;12.90;;;9.85;;
57087;SDS011;42965;52.846;6.614;2023-04-21T09:20:14;17.15;;;10.00;;
57087;SDS011;42965;52.846;6.614;2023-04-21T09:22:42;11.90;;;9.05;;
57087;SDS011;42965;52.846;6.614;2023-04-21T09:25:09;15.25;;;9.18;;
57087;SDS011;42965;52.846;6.614;2023-04-21T09:27:40;15.70;;;9.27;;
57087;SDS011;42965;52.846;6.614;2023-04-21T09:30:07;13.65;;;9.93;;
57087;SDS011;42965;52.846;6.614;2023-04-21T09:32:37;17.20;;;10.60;;
57087;SDS011;42965;52.846;6.614;2023-04-21T09:35:05;11.55;;;9.80;;
57087;SDS011;42965;52.846;6.614;2023-04-21T09:37:36;12.13;;;9.75;;
57087;SDS011;42965;52.846;6.614;2023-04-21T09:40:04;15.38;;;10.68;;
57087;SDS011;42965;52.846;6.614;2023-04-21T09:42:31;14.45;;;9.82;;
57087;SDS011;42965;52.846;6.614;2023-04-21T09:44:57;14.00;;;10.35;;
57087;SDS011;42965;52.846;6.614;2023-04-21T09:47:24;13.20;;;9.30;;
57087;SDS011;42965;52.846;6.614;2023-04-21T09:49:55;21.92;;;13.63;;
57087;SDS011;42965;52.846;6.614;2023-04-21T09:52:23;15.23;;;10.55;;
57087;SDS011;42965;52.846;6.614;2023-04-21T09:54:56;19.05;;;11.48;;
57087;SDS011;42965;52.846;6.614;2023-04-21T09:57:29;21.95;;;11.13;;
57087;SDS011;42965;52.846;6.614;2023-04-21T10:00:01;18.35;;;10.85;;
57087;SDS011;42965;52.846;6.614;2023-04-21T10:02:31;16.05;;;10.32;;
57087;SDS011;42965;52.846;6.614;2023-04-21T10:05:00;16.40;;;10.82;;
57087;SDS011;42965;52.846;6.614;2023-04-21T10:07:28;13.45;;;9.60;;
57087;SDS011;42965;52.846;6.614;2023-04-21T10:09:55;15.43;;;10.40;;
57087;SDS011;42965;52.846;6.614;2023-04-21T10:12:23;18.08;;;11.35;;
57087;SDS011;42965;52.846;6.614;2023-04-21T10:14:51;16.63;;;10.18;;
57087;SDS011;42965;52.846;6.614;2023-04-21T10:17:20;15.02;;;10.77;;
57087;SDS011;42965;52.846;6.614;2023-04-21T10:19:53;15.10;;;10.48;;
57087;SDS011;42965;52.846;6.614;2023-04-21T10:22:29;12.20;;;10.43;;
57087;SDS011;42965;52.846;6.614;2023-04-21T10:24:58;13.00;;;9.55;;
57087;SDS011;42965;52.846;6.614;2023-04-21T10:29:59;16.20;;;10.18;;
57087;SDS011;42965;52.846;6.614;2023-04-21T10:32:39;16.45;;;9.55;;
57087;SDS011;42965;52.846;6.614;2023-04-21T10:35:10;13.40;;;9.80;;
57087;SDS011;42965;52.846;6.614;2023-04-21T10:37:39;16.85;;;9.88;;
57087;SDS011;42965;52.846;6.614;2023-04-21T10:40:53;16.45;;;9.55;;
57087;SDS011;42965;52.846;6.614;2023-04-21T10:42:54;16.60;;;10.27;;
57087;SDS011;42965;52.846;6.614;2023-04-21T10:45:21;15.65;;;10.25;;
57087;SDS011;42965;52.846;6.614;2023-04-21T10:47:51;14.15;;;9.93;;
57087;SDS011;42965;52.846;6.614;2023-04-21T10:52:49;14.32;;;10.20;;
57087;SDS011;42965;52.846;6.614;2023-04-21T10:55:16;14.10;;;10.20;;
57087;SDS011;42965;52.846;6.614;2023-04-21T10:57:43;14.55;;;11.35;;
57087;SDS011;42965;52.846;6.614;2023-04-21T11:00:11;14.02;;;10.63;;
57087;SDS011;42965;52.846;6.614;2023-04-21T11:02:40;14.57;;;10.67;;
57087;SDS011;42965;52.846;6.614;2023-04-21T11:05:07;12.90;;;9.50;;
57087;SDS011;42965;52.846;6.614;2023-04-21T11:07:34;17.00;;;11.25;;
57087;SDS011;42965;52.846;6.614;2023-04-21T11:10:07;16.65;;;10.45;;
57087;SDS011;42965;52.846;6.614;2023-04-21T11:12:36;13.38;;;9.90;;
57087;SDS011;42965;52.846;6.614;2023-04-21T11:15:05;15.43;;;10.43;;
57087;SDS011;42965;52.846;6.614;2023-04-21T11:17:33;13.75;;;9.65;;
57087;SDS011;42965;52.846;6.614;2023-04-21T11:20:00;17.17;;;9.35;;
57087;SDS011;42965;52.846;6.614;2023-04-21T11:22:28;13.95;;;8.60;;
57087;SDS011;42965;52.846;6.614;2023-04-21T11:24:55;17.02;;;9.77;;
57087;SDS011;42965;52.846;6.614;2023-04-21T11:27:25;13.10;;;9.15;;
57087;SDS011;42965;52.846;6.614;2023-04-21T11:29:53;12.38;;;9.02;;
57087;SDS011;42965;52.846;6.614;2023-04-21T11:32:19;17.35;;;9.40;;
57087;SDS011;42965;52.846;6.614;2023-04-21T11:34:46;12.82;;;7.40;;
57087;SDS011;42965;52.846;6.614;2023-04-21T11:37:13;11.75;;;8.30;;
57087;SDS011;42965;52.846;6.614;2023-04-21T11:39:41;13.95;;;7.68;;
57087;SDS011;42965;52.846;6.614;2023-04-21T11:42:09;10.70;;;7.75;;
57087;SDS011;42965;52.846;6.614;2023-04-21T11:44:40;10.07;;;6.70;;
57087;SDS011;42965;52.846;6.614;2023-04-21T11:47:10;10.07;;;6.40;;
57087;SDS011;42965;52.846;6.614;2023-04-21T11:49:42;13.25;;;7.10;;
57087;SDS011;42965;52.846;6.614;2023-04-21T11:52:11;11.77;;;7.30;;
57087;SDS011;42965;52.846;6.614;2023-04-21T11:54:47;13.60;;;7.72;;
57087;SDS011;42965;52.846;6.614;2023-04-21T11:57:18;13.27;;;7.10;;
57087;SDS011;42965;52.846;6.614;2023-04-21T11:59:46;14.20;;;7.10;;
57087;SDS011;42965;52.846;6.614;2023-04-21T12:02:19;15.52;;;6.88;;
57087;SDS011;42965;52.846;6.614;2023-04-21T12:04:58;11.35;;;6.25;;
57087;SDS011;42965;52.846;6.614;2023-04-21T12:07:32;10.93;;;7.03;;
57087;SDS011;42965;52.846;6.614;2023-04-21T12:10:10;11.75;;;6.60;;
57087;SDS011;42965;52.846;6.614;2023-04-21T12:12:39;11.88;;;6.20;;
57087;SDS011;42965;52.846;6.614;2023-04-21T12:15:07;11.07;;;5.78;;
57087;SDS011;42965;52.846;6.614;2023-04-21T12:17:38;14.20;;;6.32;;
57087;SDS011;42965;52.846;6.614;2023-04-21T12:20:08;11.68;;;7.30;;
57087;SDS011;42965;52.846;6.614;2023-04-21T12:22:35;10.43;;;6.10;;
57087;SDS011;42965;52.846;6.614;2023-04-21T12:25:01;10.10;;;6.35;;
57087;SDS011;42965;52.846;6.614;2023-04-21T12:27:28;12.65;;;6.50;;
57087;SDS011;42965;52.846;6.614;2023-04-21T12:29:54;8.18;;;5.60;;
57087;SDS011;42965;52.846;6.614;2023-04-21T12:32:20;10.85;;;6.45;;
57087;SDS011;42965;52.846;6.614;2023-04-21T12:34:47;13.10;;;6.22;;
57087;SDS011;42965;52.846;6.614;2023-04-21T12:37:13;11.02;;;6.05;;
57087;SDS011;42965;52.846;6.614;2023-04-21T12:39:39;10.05;;;5.53;;
57087;SDS011;42965;52.846;6.614;2023-04-21T12:42:06;14.75;;;6.60;;
57087;SDS011;42965;52.846;6.614;2023-04-21T12:44:33;9.60;;;6.13;;
57087;SDS011;42965;52.846;6.614;2023-04-21T12:46:59;9.45;;;5.97;;
57087;SDS011;42965;52.846;6.614;2023-04-21T12:49:25;9.30;;;5.10;;
57087;SDS011;42965;52.846;6.614;2023-04-21T12:51:54;16.83;;;12.60;;
57087;SDS011;42965;52.846;6.614;2023-04-21T12:54:21;13.65;;;5.28;;
57087;SDS011;42965;52.846;6.614;2023-04-21T12:56:47;9.15;;;5.60;;
57087;SDS011;42965;52.846;6.614;2023-04-21T12:59:13;12.55;;;6.13;;
57087;SDS011;42965;52.846;6.614;2023-04-21T13:01:39;14.15;;;5.25;;
57087;SDS011;42965;52.846;6.614;2023-04-21T13:04:07;11.00;;;5.28;;
57087;SDS011;42965;52.846;6.614;2023-04-21T13:06:33;10.88;;;5.05;;
57087;SDS011;42965;52.846;6.614;2023-04-21T13:08:59;9.70;;;5.15;;
57087;SDS011;42965;52.846;6.614;2023-04-21T13:11:26;9.95;;;5.18;;
57087;SDS011;42965;52.846;6.614;2023-04-21T13:13:52;10.52;;;5.00;;
57087;SDS011;42965;52.846;6.614;2023-04-21T13:16:18;6.80;;;4.80;;
57087;SDS011;42965;52.846;6.614;2023-04-21T13:18:45;10.60;;;4.88;;
57087;SDS011;42965;52.846;6.614;2023-04-21T13:21:12;11.75;;;5.45;;
57087;SDS011;42965;52.846;6.614;2023-04-21T13:23:38;8.27;;;4.93;;
57087;SDS011;42965;52.846;6.614;2023-04-21T13:26:05;12.55;;;6.10;;
57087;SDS011;42965;52.846;6.614;2023-04-21T13:28:32;7.78;;;4.82;;
57087;SDS011;42965;52.846;6.614;2023-04-21T13:30:58;8.45;;;4.13;;
57087;SDS011;42965;52.846;6.614;2023-04-21T13:33:26;9.38;;;6.43;;
57087;SDS011;42965;52.846;6.614;2023-04-21T13:35:52;15.23;;;6.40;;
57087;SDS011;42965;52.846;6.614;2023-04-21T13:38:19;11.05;;;4.05;;
57087;SDS011;42965;52.846;6.614;2023-04-21T13:40:45;6.63;;;4.43;;
57087;SDS011;42965;52.846;6.614;2023-04-21T13:43:13;14.23;;;6.45;;
57087;SDS011;42965;52.846;6.614;2023-04-21T13:45:40;8.73;;;4.20;;
57087;SDS011;42965;52.846;6.614;2023-04-21T13:48:06;12.07;;;3.60;;
57087;SDS011;42965;52.846;6.614;2023-04-21T13:50:32;8.02;;;3.83;;
57087;SDS011;42965;52.846;6.614;2023-04-21T13:52:59;12.18;;;3.85;;
57087;SDS011;42965;52.846;6.614;2023-04-21T13:55:25;7.28;;;4.13;;
57087;SDS011;42965;52.846;6.614;2023-04-21T13:57:51;10.60;;;4.40;;
57087;SDS011;42965;52.846;6.614;2023-04-21T14:00:17;10.43;;;3.88;;
57087;SDS011;42965;52.846;6.614;2023-04-21T14:02:44;13.25;;;4.13;;
57087;SDS011;42965;52.846;6.614;2023-04-21T14:05:10;10.52;;;4.10;;
57087;SDS011;42965;52.846;6.614;2023-04-21T14:07:37;9.13;;;3.58;;
57087;SDS011;42965;52.846;6.614;2023-04-21T14:10:03;10.20;;;3.28;;
57087;SDS011;42965;52.846;6.614;2023-04-21T14:12:29;14.63;;;7.07;;
57087;SDS011;42965;52.846;6.614;2023-04-21T14:14:56;9.60;;;3.97;;
57087;SDS011;42965;52.846;6.614;2023-04-21T14:17:22;9.35;;;3.35;;
57087;SDS011;42965;52.846;6.614;2023-04-21T14:19:48;9.52;;;3.40;;
57087;SDS011;42965;52.846;6.614;2023-04-21T14:22:14;10.73;;;4.70;;
57087;SDS011;42965;52.846;6.614;2023-04-21T14:24:41;10.68;;;3.35;;
57087;SDS011;42965;52.846;6.614;2023-04-21T14:27:08;7.78;;;2.88;;
57087;SDS011;42965;52.846;6.614;2023-04-21T14:29:35;7.93;;;3.30;;
57087;SDS011;42965;52.846;6.614;2023-04-21T14:32:01;7.88;;;3.92;;
57087;SDS011;42965;52.846;6.614;2023-04-21T14:34:27;7.00;;;2.88;;
57087;SDS011;42965;52.846;6.614;2023-04-21T14:36:53;9.60;;;3.30;;